Dover, Illinois
Current Conditions -  °F | °C
As of 5:55 PM on Wednesday 22 Oct 2014 (Local Time) from KVYS Reporting Station
Clear Clear  
Wind Chill: 56°   Ceiling: Unl
Heat Index: 56°   Visibility: 10mi
Dew Point: 35°   Wind: 6mph
Humidity: 44%   Direction: 140°SE
Pressure: 30.25"   Gusts: NA
Location:  41.44°N, 89.39°W
Report Text: KVYS 222255Z AUTO 14005KT 10SM CLR 14/02 A3025 RMK AO2 T01360016
Loading
Personal Weather Stations






























Interactive Weather Map
Tropical Storm Tracking
New forecast layout! Learn more

10-Day Weather Forecast

Advertisements
Track Severe Weather on mobile